createdAt,value
2019-05-17T00:02:17.327Z,100771.02
2019-05-17T00:07:39.615Z,100765.66
2019-05-17T00:13:02.855Z,100763.98
2019-05-17T00:18:26.546Z,100764.55
2019-05-17T00:23:50.137Z,100749.53
2019-05-17T00:29:13.210Z,100748.22
2019-05-17T00:34:37.677Z,100731.55
2019-05-17T00:40:01.250Z,100739.20
2019-05-17T00:45:26.593Z,100723.23
2019-05-17T00:50:53.117Z,100720.34
2019-05-17T00:56:16.977Z,100717.19
2019-05-17T01:01:39.221Z,100716.19
2019-05-17T01:07:02.516Z,100716.31
2019-05-17T01:12:27.134Z,100724.52
2019-05-17T01:17:50.802Z,100713.62
2019-05-17T01:23:16.529Z,100724.74
2019-05-17T01:28:39.159Z,100727.63
2019-05-17T01:34:02.631Z,100719.84
2019-05-17T01:39:26.855Z,100721.94
2019-05-17T01:44:50.699Z,100719.75
2019-05-17T01:50:14.648Z,100709.89
2019-05-17T01:55:37.812Z,100702.26
2019-05-17T02:01:00.549Z,100712.66
2019-05-17T02:06:23.802Z,100707.47
2019-05-17T02:11:47.135Z,100706.12
2019-05-17T02:17:10.387Z,100695.05
2019-05-17T02:22:33.517Z,100695.43
2019-05-17T02:27:56.909Z,100698.62
2019-05-17T02:33:23.537Z,100698.75
2019-05-17T02:38:45.187Z,100698.12
2019-05-17T02:44:08.719Z,100702.52
2019-05-17T02:49:33.184Z,100697.20
2019-05-17T02:54:56.603Z,100696.22
2019-05-17T03:00:24.004Z,100692.52
2019-05-17T03:05:45.497Z,100697.14
2019-05-17T03:11:08.948Z,100694.80
2019-05-17T03:16:33.938Z,100692.25
2019-05-17T03:21:56.863Z,100696.69
2019-05-17T03:27:23.079Z,100698.64
2019-05-17T03:32:48.073Z,100701.82
2019-05-17T03:38:13.878Z,100704.55
2019-05-17T03:43:36.552Z,100699.67
2019-05-17T03:48:59.796Z,100693.23
2019-05-17T03:54:23.120Z,100699.68
2019-05-17T03:59:46.399Z,100695.24
2019-05-17T04:05:12.663Z,100693.22
2019-05-17T04:10:35.088Z,100689.00
2019-05-17T04:15:58.365Z,100687.19
2019-05-17T04:21:23.487Z,100695.72
2019-05-17T04:26:46.828Z,100683.23
2019-05-17T04:32:13.034Z,100684.01
2019-05-17T04:37:38.413Z,100681.58
2019-05-17T04:43:02.953Z,100677.92
2019-05-17T04:48:24.639Z,100668.31
2019-05-17T04:53:48.209Z,100669.03
2019-05-17T04:59:13.911Z,100673.28
2019-05-17T05:04:38.550Z,100672.22
2019-05-17T05:10:03.065Z,100677.81
2019-05-17T05:15:43.314Z,100662.65
2019-05-17T05:21:05.244Z,100661.03
2019-05-17T05:26:28.667Z,100655.96
2019-05-17T05:31:51.983Z,100657.70
2019-05-17T05:37:15.120Z,100658.94
2019-05-17T05:42:38.477Z,100653.53
2019-05-17T05:48:01.919Z,100652.25
2019-05-17T05:53:25.419Z,100651.83
2019-05-17T05:58:49.076Z,100654.90
2019-05-17T06:04:11.987Z,100654.30
2019-05-17T06:09:35.229Z,100653.76
2019-05-17T06:14:58.147Z,100652.55
2019-05-17T06:20:22.516Z,100650.95
2019-05-17T06:25:45.346Z,100648.50
2019-05-17T06:31:08.635Z,100643.18
2019-05-17T06:36:32.922Z,100641.53
2019-05-17T06:41:56.460Z,100641.33
2019-05-17T06:47:19.723Z,100635.84
2019-05-17T06:52:44.098Z,100647.16
2019-05-17T06:58:07.212Z,100645.12
2019-05-17T07:03:30.731Z,100640.03
2019-05-17T19:01:25.416Z,100338.92
2019-05-17T19:06:48.802Z,100343.53
2019-05-17T19:12:11.511Z,100351.83
2019-05-17T19:17:35.182Z,100354.02
2019-05-17T19:22:59.183Z,100357.14
2019-05-17T19:28:22.325Z,100365.87
2019-05-17T19:33:45.461Z,100370.56
2019-05-17T19:39:09.043Z,100368.11
2019-05-17T19:44:32.430Z,100365.98
2019-05-17T19:49:55.982Z,100367.78
2019-05-17T19:55:19.273Z,100375.75
2019-05-17T20:00:42.679Z,100376.77
2019-05-17T20:06:06.278Z,100373.98
2019-05-17T20:11:34.504Z,100368.87
2019-05-17T20:16:54.799Z,100371.69
2019-05-17T20:22:17.855Z,100369.48
2019-05-17T20:27:41.523Z,100359.19
2019-05-17T20:33:05.211Z,100358.85
2019-05-17T20:38:28.891Z,100358.22
2019-05-17T20:43:52.293Z,100356.20
2019-05-17T20:49:15.280Z,100351.11
2019-05-17T20:54:38.867Z,100356.20
2019-05-17T21:00:02.432Z,100345.06
2019-05-17T21:05:26.030Z,100347.86
2019-05-17T21:10:49.601Z,100341.67
2019-05-17T21:16:12.954Z,100341.09
2019-05-17T21:21:35.917Z,100336.58
2019-05-17T21:26:59.243Z,100335.51
2019-05-17T21:32:23.160Z,100333.48
2019-05-17T21:37:46.177Z,100340.61
2019-05-17T21:43:09.800Z,100335.21
2019-05-17T21:48:33.616Z,100333.03
2019-05-17T21:53:56.201Z,100331.44
2019-05-17T21:59:19.566Z,100334.07
2019-05-17T22:04:43.229Z,100329.31
2019-05-17T22:10:07.746Z,100328.88
2019-05-17T22:15:31.319Z,100331.41
2019-05-17T22:20:54.919Z,100322.52
2019-05-17T22:26:17.777Z,100315.70
2019-05-17T22:31:40.651Z,100318.70
2019-05-17T22:37:03.959Z,100316.98
2019-05-17T22:42:27.736Z,100314.05
2019-05-17T22:47:50.856Z,100315.08
2019-05-17T22:53:14.913Z,100314.42
2019-05-17T22:58:38.079Z,100323.45
2019-05-17T23:04:01.237Z,100316.59
2019-05-17T23:09:24.855Z,100322.23
2019-05-17T23:14:48.400Z,100327.39
2019-05-17T23:20:12.285Z,100320.36
2019-05-17T23:25:35.576Z,100325.35
2019-05-17T23:30:59.144Z,100327.87
2019-05-17T23:36:22.951Z,100321.86
2019-05-17T23:41:46.521Z,100324.34
2019-05-17T23:47:09.765Z,100320.92
2019-05-17T23:52:32.776Z,100324.15
2019-05-17T23:57:56.151Z,100315.73
